Time;durP1;ratioP1;P1;durP2;ratioP2;P2;SDS_P1;SDS_P2;PMS_P1;PMS_P2;Temp;Humidity;BMP_temperature;BMP_pressure;BME280_temperature;BME280_humidity;BME280_pressure;Samples;Min_cycle;Max_cycle;Signal;HPM_P1;HPM_P2
2021/10/24 00:00:08;;;;;;;5.10;1.62;;;;;;;19.44;39.61;100935.75;4421930;32;20033;-70
2021/10/24 00:02:34;;;;;;;8.25;1.85;;;;;;;19.59;39.46;100933.66;4418743;32;20638;-70
2021/10/24 00:05:00;;;;;;;5.78;1.40;;;;;;;19.62;39.40;100929.81;4418678;32;20054;-70
2021/10/24 00:07:26;;;;;;;6.03;1.70;;;;;;;19.28;40.09;100930.56;4418912;32;20063;-70
2021/10/24 00:09:52;;;;;;;4.40;1.65;;;;;;;19.51;39.64;100936.13;4421380;32;20498;-70
2021/10/24 00:12:21;;;;;;;10.23;1.37;;;;;;;19.59;39.49;100923.03;4418871;32;20586;-70
2021/10/24 00:14:47;;;;;;;7.53;2.15;;;;;;;19.60;39.61;100936.03;4416939;32;20034;-69
2021/10/24 00:17:13;;;;;;;8.55;2.00;;;;;;;19.63;39.52;100926.47;4420334;32;20034;-70
2021/10/24 00:19:39;;;;;;;8.63;1.92;;;;;;;19.80;39.27;100926.72;4420448;32;20073;-70
2021/10/24 00:22:05;;;;;;;9.77;1.77;;;;;;;19.88;39.31;100916.41;4416974;32;20069;-70
2021/10/24 00:24:31;;;;;;;6.03;1.77;;;;;;;19.95;39.27;100921.72;4415762;32;20078;-70
2021/10/24 00:26:57;;;;;;;7.85;1.40;;;;;;;19.55;40.23;100916.72;4418713;32;20438;-70
2021/10/24 00:29:23;;;;;;;13.93;1.77;;;;;;;19.69;39.66;100920.81;4419865;32;20046;-70
2021/10/24 00:31:48;;;;;;;8.07;1.45;;;;;;;19.86;39.67;100919.00;4420492;32;20583;-70
2021/10/24 00:34:14;;;;;;;6.20;1.62;;;;;;;19.80;39.83;100910.34;4416891;32;20100;-70
2021/10/24 00:36:40;;;;;;;9.23;1.83;;;;;;;19.77;39.79;100905.66;4417810;32;20354;-70
2021/10/24 00:39:06;;;;;;;11.15;3.45;;;;;;;19.60;40.50;100904.63;4420508;32;20097;-70
2021/10/24 00:41:32;;;;;;;5.93;1.30;;;;;;;19.76;40.15;100909.78;4419735;32;20080;-70
2021/10/24 00:44:16;;;;;;;12.85;2.00;;;;;;;19.27;41.42;100901.25;4417321;32;20378;-70
2021/10/24 00:46:42;;;;;;;9.60;1.55;;;;;;;19.71;40.90;100912.56;4416446;32;20034;-70
2021/10/24 00:49:08;;;;;;;6.75;1.87;;;;;;;19.61;40.85;100896.84;4419655;32;20058;-70
2021/10/24 00:51:34;;;;;;;11.73;1.48;;;;;;;19.76;40.41;100891.88;4413745;32;20189;-69
2021/10/24 00:54:00;;;;;;;7.95;2.10;;;;;;;19.64;40.94;100888.06;4418221;32;20372;-70
2021/10/24 00:56:26;;;;;;;4.90;1.30;;;;;;;19.56;41.26;100898.34;4421190;32;20096;-70
2021/10/24 00:58:53;;;;;;;7.50;1.80;;;;;;;19.84;40.91;100893.00;4419668;32;20078;-70
2021/10/24 01:01:19;;;;;;;8.32;1.50;;;;;;;19.83;40.72;100893.50;4417429;32;20073;-70
2021/10/24 01:03:45;;;;;;;9.38;1.90;;;;;;;19.58;41.26;100892.13;4418643;32;20074;-70
2021/10/24 01:06:11;;;;;;;9.85;1.58;;;;;;;19.53;41.38;100896.47;4420122;32;20021;-70
2021/10/24 01:08:37;;;;;;;9.13;1.33;;;;;;;19.83;41.00;100897.91;4419480;32;20113;-70
2021/10/24 01:11:04;;;;;;;7.45;1.95;;;;;;;19.41;41.58;100883.31;4420737;32;20178;-69
2021/10/24 01:13:33;;;;;;;9.40;1.75;;;;;;;19.53;41.43;100881.41;4420737;32;20431;-70
2021/10/24 01:16:16;;;;;;;6.25;1.35;;;;;;;19.62;41.35;100882.06;4418135;32;20143;-70
2021/10/24 01:18:44;;;;;;;9.18;1.40;;;;;;;19.64;41.27;100879.50;4418067;32;20033;-70
2021/10/24 01:21:10;;;;;;;8.30;1.50;;;;;;;19.73;41.23;100872.88;4418725;32;20139;-70
2021/10/24 01:23:36;;;;;;;9.65;1.80;;;;;;;19.37;41.62;100876.25;4416825;32;20112;-70
2021/10/24 01:26:04;;;;;;;6.37;1.50;;;;;;;19.49;41.34;100863.72;4419141;32;20046;-70
2021/10/24 01:28:30;;;;;;;6.53;1.37;;;;;;;19.67;40.82;100866.31;4415174;32;20064;-70
2021/10/24 01:30:56;;;;;;;11.57;1.60;;;;;;;19.31;41.51;100863.94;4418738;32;20457;-70
2021/10/24 01:33:22;;;;;;;10.70;1.55;;;;;;;19.26;41.45;100853.19;4419215;32;20014;-70
2021/10/24 01:38:27;;;;;;;6.97;1.60;;;;;;;19.85;40.30;100846.00;3984681;32;15026578;-70
2021/10/24 01:40:55;;;;;;;6.47;1.40;;;;;;;19.85;40.30;100846.00;4439684;32;20052;-70
2021/10/24 01:43:22;;;;;;;9.07;1.70;;;;;;;19.56;40.60;100841.25;4432081;32;20112;-70
2021/10/24 01:45:48;;;;;;;7.55;1.40;;;;;;;19.25;41.52;100838.16;4432126;32;20083;-70
2021/10/24 01:48:16;;;;;;;7.93;1.77;;;;;;;19.20;41.99;100838.06;4439271;32;20009;-70
2021/10/24 01:50:43;;;;;;;6.40;1.33;;;;;;;18.74;42.77;100846.41;4439964;32;20045;-70
2021/10/24 01:53:10;;;;;;;5.30;1.25;;;;;;;19.35;41.66;100828.22;4439006;32;20112;-70
2021/10/24 01:55:36;;;;;;;6.15;1.50;;;;;;;19.13;41.68;100825.00;4436409;32;20060;-69
2021/10/24 01:58:02;;;;;;;7.40;1.50;;;;;;;19.21;41.38;100823.31;4436828;32;20362;-69
2021/10/24 02:00:27;;;;;;;7.65;1.40;;;;;;;19.38;41.11;100829.28;4437288;32;20034;-69
2021/10/24 02:02:53;;;;;;;7.07;1.17;;;;;;;19.30;40.93;100811.78;4440719;32;20377;-70
2021/10/24 02:05:20;;;;;;;7.37;1.40;;;;;;;19.45;40.80;100809.69;4436959;32;20064;-70
2021/10/24 02:07:45;;;;;;;9.90;1.30;;;;;;;19.24;41.21;100816.59;4436770;32;20136;-70
2021/10/24 02:10:15;;;;;;;7.03;1.42;;;;;;;19.04;41.34;100796.59;4438887;32;20044;-70
2021/10/24 02:12:41;;;;;;;7.12;1.20;;;;;;;19.29;41.13;100792.31;4439568;32;20126;-70
2021/10/24 02:15:09;;;;;;;9.65;1.55;;;;;;;19.07;41.14;100797.66;4436591;32;20038;-70
2021/10/24 02:17:35;;;;;;;5.47;1.40;;;;;;;19.35;40.86;100799.69;4440920;32;20082;-70
2021/10/24 02:20:02;;;;;;;10.55;1.45;;;;;;;19.03;41.24;100797.09;4433801;32;20072;-70
2021/10/24 02:22:28;;;;;;;4.05;1.15;;;;;;;19.04;41.56;100792.97;4436996;32;20052;-70
2021/10/24 02:24:53;;;;;;;6.82;1.65;;;;;;;19.07;41.26;100781.34;4438551;32;20065;-70
2021/10/24 02:27:20;;;;;;;7.53;1.50;;;;;;;18.78;41.68;100781.41;4437354;32;20044;-70
2021/10/24 02:29:46;;;;;;;7.35;2.05;;;;;;;19.18;40.98;100783.59;4435324;32;20101;-70
2021/10/24 02:32:13;;;;;;;4.85;1.25;;;;;;;19.25;40.97;100780.31;4435747;32;20074;-70
2021/10/24 02:34:39;;;;;;;4.10;1.40;;;;;;;19.08;41.28;100773.56;4438054;32;20077;-70
2021/10/24 02:37:06;;;;;;;5.43;1.37;;;;;;;18.69;42.01;100773.00;4436644;32;20111;-70
2021/10/24 02:39:32;;;;;;;8.43;1.60;;;;;;;19.17;41.14;100768.53;4437710;32;20033;-70
2021/10/24 02:41:58;;;;;;;5.57;1.40;;;;;;;19.14;40.76;100766.66;4438629;32;20573;-70
2021/10/24 02:44:23;;;;;;;8.52;1.40;;;;;;;19.23;40.93;100768.59;4436432;32;20041;-70
2021/10/24 02:46:51;;;;;;;5.20;1.08;;;;;;;18.93;41.47;100764.28;4434532;32;20069;-70
2021/10/24 02:49:19;;;;;;;6.68;1.33;;;;;;;19.05;41.59;100763.16;4433861;32;20037;-70
2021/10/24 02:51:45;;;;;;;5.12;1.25;;;;;;;18.82;41.96;100750.62;4426491;32;20140;-69
2021/10/24 02:54:12;;;;;;;9.75;1.20;;;;;;;18.81;42.02;100746.19;4426143;32;20093;-69
2021/10/24 02:56:37;;;;;;;5.60;0.98;;;;;;;18.91;41.65;100746.88;4426452;32;20050;-70
2021/10/24 02:59:03;;;;;;;6.40;1.35;;;;;;;19.05;41.53;100749.69;4428037;32;20041;-70
2021/10/24 03:01:29;;;;;;;5.55;1.23;;;;;;;18.78;41.89;100744.34;4426885;32;20026;-69
2021/10/24 03:03:54;;;;;;;5.18;1.20;;;;;;;18.66;42.29;100744.66;4426473;32;20287;-69
2021/10/24 03:06:20;;;;;;;7.93;1.52;;;;;;;19.15;41.25;100731.13;4428802;32;20360;-70
2021/10/24 03:08:46;;;;;;;6.22;1.02;;;;;;;19.43;40.58;100734.41;4427571;32;20041;-70
2021/10/24 03:11:12;;;;;;;7.25;1.20;;;;;;;19.38;40.79;100730.19;4429054;32;20459;-69
2021/10/24 03:13:37;;;;;;;4.75;1.20;;;;;;;19.59;40.45;100722.41;4427744;32;20029;-70
2021/10/24 03:16:03;;;;;;;4.20;1.37;;;;;;;19.40;40.67;100727.63;4427188;32;20038;-70
2021/10/24 03:18:30;;;;;;;6.35;1.55;;;;;;;19.30;41.02;100719.72;4426067;32;20083;-70
2021/10/24 03:20:56;;;;;;;8.65;2.58;;;;;;;19.59;40.42;100726.06;4428206;32;20069;-70
2021/10/24 03:23:21;;;;;;;5.12;1.65;;;;;;;19.66;40.33;100725.59;4420120;32;20049;-69
2021/10/24 03:25:49;;;;;;;4.55;1.20;;;;;;;19.28;41.02;100713.72;4425967;32;20030;-70
2021/10/24 03:28:15;;;;;;;10.75;1.30;;;;;;;19.44;40.71;100701.72;4425134;32;20029;-70
2021/10/24 03:30:41;;;;;;;8.15;2.67;;;;;;;19.69;40.35;100696.06;4429255;32;20057;-70
2021/10/24 03:33:07;;;;;;;10.82;1.98;;;;;;;19.60;40.44;100695.41;4426944;32;20147;-70
2021/10/24 03:35:33;;;;;;;4.68;1.60;;;;;;;19.54;40.64;100697.41;4428238;32;20054;-70
2021/10/24 03:37:58;;;;;;;10.77;1.60;;;;;;;19.48;40.68;100693.72;4427368;32;20064;-69
2021/10/24 03:40:24;;;;;;;9.88;2.47;;;;;;;19.52;40.30;100686.50;4425649;32;20526;-69
2021/10/24 03:42:50;;;;;;;1.70;1.12;;;;;;;19.52;40.56;100689.34;4429324;32;20261;-70
2021/10/24 03:45:16;;;;;;;9.20;1.65;;;;;;;19.43;40.77;100686.66;4415757;32;20471;-70
2021/10/24 03:47:42;;;;;;;6.07;1.30;;;;;;;19.60;40.44;100681.94;4426065;32;20608;-70
2021/10/24 03:50:08;;;;;;;5.30;1.42;;;;;;;19.77;40.12;100684.97;4428890;32;20081;-70
2021/10/24 03:52:34;;;;;;;8.02;1.85;;;;;;;19.60;40.58;100693.34;4426322;32;20124;-70
2021/10/24 03:55:01;;;;;;;4.55;1.60;;;;;;;19.42;40.97;100698.59;4427505;32;20123;-70
2021/10/24 03:57:26;;;;;;;3.15;1.10;;;;;;;19.56;40.55;100689.16;4423743;32;20052;-70
2021/10/24 03:59:52;;;;;;;11.68;2.30;;;;;;;19.49;40.63;100695.31;4426019;32;20927;-70
2021/10/24 04:02:18;;;;;;;5.87;1.30;;;;;;;19.52;40.77;100691.44;4429179;32;20065;-70
2021/10/24 04:04:44;;;;;;;5.18;1.30;;;;;;;19.15;41.39;100687.59;4425794;32;20161;-70
2021/10/24 04:07:10;;;;;;;6.95;1.50;;;;;;;19.27;41.27;100686.47;4428360;32;20014;-70
2021/10/24 04:09:37;;;;;;;9.73;1.50;;;;;;;19.18;41.54;100695.16;4425243;32;20050;-70
2021/10/24 04:12:03;;;;;;;11.05;2.15;;;;;;;19.25;41.32;100675.53;4423484;32;20058;-70
2021/10/24 04:14:30;;;;;;;3.83;1.10;;;;;;;19.20;41.28;100664.81;4428741;32;20029;-70
2021/10/24 04:16:55;;;;;;;7.47;1.33;;;;;;;19.26;41.34;100670.59;4427139;32;20115;-70
2021/10/24 04:19:21;;;;;;;5.62;1.20;;;;;;;19.33;41.25;100664.50;4424224;32;20077;-70
2021/10/24 04:21:47;;;;;;;2.85;1.00;;;;;;;19.34;41.24;100657.50;4427687;32;20026;-70
2021/10/24 04:24:13;;;;;;;6.78;1.77;;;;;;;19.53;40.87;100650.97;4422469;32;20042;-70
2021/10/24 04:26:38;;;;;;;5.03;1.02;;;;;;;19.48;41.00;100656.59;4425319;32;20097;-69
2021/10/24 04:29:04;;;;;;;7.00;1.40;;;;;;;19.09;41.54;100664.66;4427153;32;20098;-69
2021/10/24 04:31:30;;;;;;;7.62;1.42;;;;;;;19.36;41.31;100661.41;4427482;32;20103;-69
2021/10/24 04:33:56;;;;;;;7.80;1.25;;;;;;;19.46;40.89;100654.25;4425627;32;20439;-70
2021/10/24 04:36:22;;;;;;;11.35;1.30;;;;;;;19.58;40.77;100653.09;4426637;32;20557;-70
2021/10/24 04:38:49;;;;;;;6.72;1.52;;;;;;;19.23;41.56;100654.47;4426880;32;20081;-69
2021/10/24 04:41:15;;;;;;;4.60;1.60;;;;;;;18.99;41.95;100657.53;4420532;32;20320;-69
2021/10/24 04:43:41;;;;;;;4.20;1.95;;;;;;;18.97;42.12;100659.34;4425112;32;20122;-69
2021/10/24 04:46:07;;;;;;;3.72;1.33;;;;;;;18.78;42.61;100643.78;4422445;32;20034;-69
2021/10/24 04:48:33;;;;;;;8.45;1.50;;;;;;;18.77;42.60;100659.31;4426084;32;20037;-70
2021/10/24 04:50:59;;;;;;;6.20;1.73;;;;;;;18.43;43.41;100643.00;4428401;32;20026;-70
2021/10/24 04:53:25;;;;;;;7.55;1.65;;;;;;;18.53;43.24;100630.97;4426532;32;20144;-70
2021/10/24 04:55:51;;;;;;;10.63;1.67;;;;;;;18.40;43.48;100632.56;4425516;32;20068;-70
2021/10/24 04:58:17;;;;;;;7.10;2.12;;;;;;;18.66;42.96;100631.44;4425965;32;20070;-70
2021/10/24 05:00:43;;;;;;;12.18;1.62;;;;;;;18.41;43.59;100628.47;4428013;32;20514;-70
2021/10/24 05:03:09;;;;;;;4.65;1.60;;;;;;;18.75;42.72;100631.28;4425161;32;20498;-70
2021/10/24 05:05:34;;;;;;;3.83;1.40;;;;;;;18.89;42.61;100626.81;4423685;32;20135;-69
2021/10/24 05:08:00;;;;;;;9.07;1.98;;;;;;;18.58;43.31;100620.94;4427608;32;20065;-69
2021/10/24 05:10:26;;;;;;;4.90;1.48;;;;;;;18.72;42.98;100615.19;4420249;32;20142;-70
2021/10/24 05:12:52;;;;;;;8.35;1.37;;;;;;;18.95;42.41;100616.25;4425220;32;20509;-70
2021/10/24 05:15:19;;;;;;;5.50;1.65;;;;;;;18.89;42.40;100601.12;4428152;32;20080;-69
2021/10/24 05:17:45;;;;;;;6.35;1.70;;;;;;;18.89;42.42;100599.09;4426218;32;20077;-69
2021/10/24 05:20:11;;;;;;;4.43;1.60;;;;;;;18.83;42.81;100586.81;4419200;32;20127;-69
2021/10/24 05:22:37;;;;;;;6.28;1.50;;;;;;;18.84;42.76;100587.62;4428643;32;20080;-69
2021/10/24 05:25:03;;;;;;;2.92;1.42;;;;;;;18.96;42.43;100592.19;4426625;32;20351;-70
2021/10/24 05:27:29;;;;;;;5.72;1.12;;;;;;;18.88;42.75;100600.38;4425303;32;20606;-70
2021/10/24 05:29:55;;;;;;;7.45;1.50;;;;;;;19.03;42.21;100600.28;4426172;32;20077;-70
2021/10/24 05:32:21;;;;;;;7.03;1.70;;;;;;;18.65;42.95;100597.72;4423656;32;20096;-70
2021/10/24 05:34:47;;;;;;;9.57;1.58;;;;;;;18.72;42.83;100583.81;4425040;32;20105;-70
2021/10/24 05:37:13;;;;;;;4.57;1.48;;;;;;;19.00;42.23;100589.87;4426605;32;20045;-70
2021/10/24 05:39:39;;;;;;;4.95;1.60;;;;;;;18.78;42.61;100593.22;4425255;32;20446;-70
2021/10/24 05:42:05;;;;;;;6.05;1.90;;;;;;;18.74;42.69;100594.72;4427119;32;20030;-70
2021/10/24 05:44:31;;;;;;;6.55;1.73;;;;;;;19.03;42.35;100586.84;4411302;32;20077;-70
2021/10/24 05:46:56;;;;;;;2.67;1.23;;;;;;;19.01;42.10;100586.53;4416847;32;20034;-70
2021/10/24 05:49:23;;;;;;;8.02;1.55;;;;;;;19.32;41.66;100580.94;4424803;32;20099;-69
2021/10/24 05:51:49;;;;;;;10.35;1.75;;;;;;;19.38;41.60;100581.81;4427823;32;20022;-70
2021/10/24 05:54:14;;;;;;;10.00;2.00;;;;;;;19.19;41.92;100586.22;4425268;32;20465;-70
2021/10/24 05:56:40;;;;;;;5.82;1.73;;;;;;;18.98;42.25;100581.84;4425383;32;20085;-70
2021/10/24 05:59:06;;;;;;;7.90;2.17;;;;;;;18.98;42.31;100589.59;4424562;32;20389;-69
2021/10/24 06:01:32;;;;;;;9.57;1.80;;;;;;;19.32;41.54;100586.66;4428636;32;20034;-69
2021/10/24 06:03:57;;;;;;;12.00;1.98;;;;;;;19.28;41.61;100582.47;4423256;32;20428;-70
2021/10/24 06:06:23;;;;;;;7.75;1.75;;;;;;;19.38;41.33;100581.00;4426060;32;20025;-70
2021/10/24 06:08:49;;;;;;;6.57;2.28;;;;;;;19.11;41.95;100576.53;4423927;32;20092;-70
2021/10/24 06:13:55;;;;;;;7.60;1.67;;;;;;;19.67;41.37;100575.09;3987052;32;15022542;-70
2021/10/24 06:16:21;;;;;;;6.10;2.12;;;;;;;19.67;41.37;100575.09;4434911;32;20100;-70
2021/10/24 06:18:46;;;;;;;7.53;1.65;;;;;;;19.21;41.86;100566.53;4435680;32;20589;-70
2021/10/24 06:21:12;;;;;;;7.03;1.75;;;;;;;18.99;42.32;100571.22;4431572;32;20136;-70
2021/10/24 06:23:38;;;;;;;12.45;1.92;;;;;;;19.34;41.59;100571.88;4435322;32;20033;-70
2021/10/24 06:26:03;;;;;;;5.68;1.45;;;;;;;19.27;41.80;100569.50;4435749;32;20037;-70
2021/10/24 06:28:29;;;;;;;5.60;2.10;;;;;;;19.13;42.15;100564.62;4436109;32;20041;-70
2021/10/24 06:30:55;;;;;;;7.30;1.90;;;;;;;19.28;41.92;100563.28;4435178;32;20038;-70
2021/10/24 06:33:20;;;;;;;5.82;2.00;;;;;;;18.90;42.64;100560.72;4435887;32;20086;-70
2021/10/24 06:35:46;;;;;;;7.05;1.73;;;;;;;19.28;41.84;100563.28;4437619;32;20426;-70
2021/10/24 06:38:12;;;;;;;6.78;1.87;;;;;;;19.18;41.97;100567.53;4434474;32;20038;-70
2021/10/24 06:40:38;;;;;;;6.10;1.65;;;;;;;19.34;41.75;100554.78;4436795;32;20042;-70
2021/10/24 06:43:07;;;;;;;7.28;1.80;;;;;;;19.63;41.39;100557.38;4432753;32;20034;-70
2021/10/24 06:45:32;;;;;;;7.55;1.90;;;;;;;19.22;41.99;100553.84;4432116;32;20092;-70
2021/10/24 06:47:59;;;;;;;5.60;1.98;;;;;;;18.85;42.72;100546.41;4431652;32;20026;-70
2021/10/24 06:50:24;;;;;;;6.25;1.50;;;;;;;19.10;42.41;100549.31;4432780;32;20065;-70
2021/10/24 06:52:50;;;;;;;6.28;1.90;;;;;;;18.93;42.51;100564.66;4435779;32;20202;-70
2021/10/24 06:55:16;;;;;;;5.80;1.98;;;;;;;19.10;42.37;100555.00;4434404;32;20077;-70
2021/10/24 06:57:52;;;;;;;7.80;2.20;;;;;;;19.10;42.39;100555.00;4432510;32;20336;-70
2021/10/24 07:00:20;;;;;;;7.87;2.20;;;;;;;18.69;43.32;100541.28;4436709;32;20037;-70
2021/10/24 07:02:48;;;;;;;8.05;1.87;;;;;;;18.89;43.09;100541.25;4432998;32;20060;-70
2021/10/24 07:05:14;;;;;;;5.72;1.58;;;;;;;18.94;42.97;100546.25;4433062;32;20074;-70
2021/10/24 07:07:40;;;;;;;9.35;2.28;;;;;;;18.73;43.01;100536.94;4433803;32;20034;-70
2021/10/24 07:10:07;;;;;;;6.78;1.52;;;;;;;18.25;44.06;100563.47;4431327;32;20111;-70
2021/10/24 07:12:33;;;;;;;7.53;2.40;;;;;;;18.47;43.86;100549.56;4432964;32;20140;-70
2021/10/24 07:14:59;;;;;;;9.13;2.12;;;;;;;18.59;43.54;100551.28;4432811;32;20069;-70
2021/10/24 07:17:26;;;;;;;6.07;2.00;;;;;;;18.75;43.37;100559.25;4435976;32;20126;-70
2021/10/24 07:19:51;;;;;;;6.78;1.90;;;;;;;18.59;43.46;100560.59;4435576;32;20430;-70
2021/10/24 07:22:17;;;;;;;6.20;2.15;;;;;;;18.53;43.62;100567.50;4435407;32;20069;-70
2021/10/24 07:24:43;;;;;;;8.20;2.15;;;;;;;18.71;43.30;100568.00;4425914;32;20021;-70
2021/10/24 07:27:08;;;;;;;7.37;1.70;;;;;;;18.40;43.82;100576.37;4424043;32;20089;-70
2021/10/24 07:29:34;;;;;;;9.32;1.98;;;;;;;18.54;43.70;100577.62;4424795;32;20068;-70
2021/10/24 07:32:00;;;;;;;5.50;1.95;;;;;;;18.95;42.98;100573.47;4422249;32;21206;-70
2021/10/24 07:34:26;;;;;;;5.28;1.73;;;;;;;18.88;42.86;100586.13;4423463;32;20533;-70
2021/10/24 07:36:51;;;;;;;8.18;1.92;;;;;;;19.02;42.59;100576.69;4423726;32;20138;-70
2021/10/24 07:39:17;;;;;;;7.93;1.95;;;;;;;19.06;42.27;100597.25;4425499;32;21337;-70
2021/10/24 07:41:45;;;;;;;5.72;2.00;;;;;;;19.11;42.73;100604.25;4423298;32;20030;-70
2021/10/24 07:44:12;;;;;;;9.15;1.87;;;;;;;19.22;43.22;100604.41;4422007;32;20540;-70
2021/10/24 07:46:38;;;;;;;6.72;1.92;;;;;;;19.02;43.24;100607.28;4421174;32;20069;-70
2021/10/24 07:49:04;;;;;;;7.87;2.45;;;;;;;18.65;44.05;100606.28;4422012;32;20504;-70
2021/10/24 07:51:30;;;;;;;6.12;1.70;;;;;;;18.79;44.13;100611.91;4423856;32;20325;-70
2021/10/24 07:53:56;;;;;;;5.12;2.05;;;;;;;18.37;45.18;100625.03;4423316;32;20374;-69
2021/10/24 07:56:22;;;;;;;7.53;1.95;;;;;;;18.38;45.48;100626.63;4425280;32;20062;-70
2021/10/24 07:58:49;;;;;;;11.25;2.15;;;;;;;18.05;46.25;100614.66;4420587;32;20069;-69
2021/10/24 08:01:16;;;;;;;7.47;2.17;;;;;;;17.44;47.43;100614.38;4423289;32;20386;-69
2021/10/24 08:03:43;;;;;;;8.30;2.50;;;;;;;17.96;46.98;100598.47;4425809;32;20077;-69
2021/10/24 08:06:08;;;;;;;10.10;2.30;;;;;;;17.96;46.74;100609.06;4422274;32;20041;-69
2021/10/24 08:08:36;;;;;;;6.95;2.17;;;;;;;17.80;46.68;100610.37;4421375;32;20073;-69
2021/10/24 08:11:02;;;;;;;9.60;2.17;;;;;;;17.83;46.91;100613.00;4425821;32;20070;-69
2021/10/24 08:13:27;;;;;;;13.77;2.22;;;;;;;18.01;46.41;100594.91;4425218;32;20215;-69
2021/10/24 08:15:53;;;;;;;7.22;2.20;;;;;;;17.96;46.25;100586.28;4420254;32;20023;-69
2021/10/24 08:18:19;;;;;;;14.75;6.30;;;;;;;18.17;45.77;100577.31;4421348;32;20398;-69
2021/10/24 08:20:46;;;;;;;11.57;2.33;;;;;;;18.09;45.95;100575.34;4420455;32;20116;-69
2021/10/24 08:23:14;;;;;;;7.95;2.42;;;;;;;18.05;46.07;100583.31;4417359;32;20056;-69
2021/10/24 08:25:40;;;;;;;8.52;2.28;;;;;;;18.00;46.38;100589.69;4423116;32;20063;-70
2021/10/24 08:28:06;;;;;;;5.05;2.28;;;;;;;17.95;46.28;100590.41;4425112;32;20101;-69
2021/10/24 08:30:32;;;;;;;10.38;2.20;;;;;;;18.01;46.19;100571.38;4422173;32;20067;-69
2021/10/24 08:32:58;;;;;;;9.45;2.50;;;;;;;18.03;46.36;100574.47;4420055;32;20115;-69
2021/10/24 08:35:25;;;;;;;11.93;2.58;;;;;;;17.88;46.89;100583.84;4423872;32;20077;-69
2021/10/24 08:37:50;;;;;;;5.95;1.87;;;;;;;18.09;46.60;100578.19;4422802;32;20030;-69
2021/10/24 08:40:16;;;;;;;10.20;2.60;;;;;;;18.01;46.90;100585.59;4428485;32;20128;-69
2021/10/24 08:42:45;;;;;;;10.88;2.55;;;;;;;18.08;47.17;100582.34;4421710;32;20030;-69
2021/10/24 08:45:12;;;;;;;10.85;2.40;;;;;;;18.24;46.79;100578.97;4421710;32;20112;-69
2021/10/24 08:47:40;;;;;;;9.00;2.65;;;;;;;18.14;47.41;100583.22;4422422;32;20504;-69
2021/10/24 08:50:08;;;;;;;8.35;1.90;;;;;;;18.21;47.08;100574.25;4423565;32;20097;-69
2021/10/24 08:52:36;;;;;;;7.85;2.25;;;;;;;18.31;46.98;100567.16;4424306;32;20018;-69
2021/10/24 08:55:02;;;;;;;5.10;2.10;;;;;;;18.40;47.16;100559.28;4422656;32;20060;-69
2021/10/24 08:57:28;;;;;;;8.20;2.47;;;;;;;18.16;47.46;100567.19;4424238;32;20065;-69
2021/10/24 08:59:56;;;;;;;9.65;2.30;;;;;;;18.09;47.79;100538.34;4420965;32;20034;-69
2021/10/24 09:02:24;;;;;;;7.57;2.45;;;;;;;18.20;48.01;100541.34;4422240;32;20523;-69
2021/10/24 09:04:52;;;;;;;6.75;2.45;;;;;;;18.32;47.71;100538.19;4423054;32;20106;-69
2021/10/24 09:07:19;;;;;;;7.00;2.33;;;;;;;18.52;47.05;100543.13;4422228;32;20074;-69
2021/10/24 09:09:45;;;;;;;15.80;2.45;;;;;;;18.56;47.37;100533.09;4422648;32;20086;-69
2021/10/24 09:12:13;;;;;;;7.20;2.30;;;;;;;18.54;47.14;100538.53;4421769;32;20053;-69
2021/10/24 09:14:42;;;;;;;6.93;2.40;;;;;;;18.58;47.39;100541.94;4422338;32;20114;-69
2021/10/24 09:17:11;;;;;;;7.50;2.03;;;;;;;18.54;47.65;100546.28;4422905;32;20152;-69
2021/10/24 09:19:42;;;;;;;9.00;2.58;;;;;;;18.59;47.57;100539.88;4422076;32;20041;-70
2021/10/24 09:25:12;;;;;;;6.25;2.12;;;;;;;18.88;46.83;100548.25;3980347;32;15132146;-70
2021/10/24 09:27:45;;;;;;;9.85;2.40;;;;;;;18.91;46.54;100550.91;4432576;32;20543;-70
2021/10/24 09:32:57;;;;;;;9.75;2.92;;;;;;;19.78;45.31;100540.91;3984230;32;15021377;-70
2021/10/24 09:35:27;;;;;;;6.65;2.17;;;;;;;19.78;45.31;100540.91;4437592;32;20398;-70
2021/10/24 09:37:55;;;;;;;7.55;2.20;;;;;;;19.40;45.70;100550.69;4438521;32;20112;-70
2021/10/24 09:40:28;;;;;;;6.07;2.20;;;;;;;19.11;46.21;100550.06;4439416;32;20426;-70
2021/10/24 09:46:10;;;;;;;10.20;2.33;;;;;;;19.78;45.02;100564.53;3997074;32;15018854;-70
2021/10/24 09:48:37;;;;;;;11.77;3.42;;;;;;;19.78;45.02;100564.53;4461191;32;20037;-70
2021/10/24 09:51:08;;;;;;;10.00;2.40;;;;;;;19.09;46.13;100564.06;4455763;32;20141;-70
2021/10/24 09:53:36;;;;;;;8.13;2.45;;;;;;;19.33;45.82;100553.22;4455312;32;20041;-70
2021/10/24 09:58:41;;;;;;;9.05;3.00;;;;;;;19.14;46.41;100580.44;3974500;31;15708639;-70
2021/10/24 10:01:16;;;;;;;8.10;2.40;;;;;;;19.14;46.41;100580.44;4448527;32;20076;-70
2021/10/24 10:03:43;;;;;;;9.38;2.40;;;;;;;19.05;46.06;100569.22;4446835;32;20354;-70
2021/10/24 10:06:10;;;;;;;10.48;2.80;;;;;;;19.09;46.11;100559.13;4448456;32;21185;-70
2021/10/24 10:08:42;;;;;;;9.13;2.58;;;;;;;19.18;45.94;100556.13;4444394;32;20461;-70
2021/10/24 10:13:47;;;;;;;9.25;2.92;;;;;;;20.01;44.68;100567.56;3992526;31;15017006;-70
2021/10/24 10:16:17;;;;;;;13.15;2.72;;;;;;;20.01;44.68;100567.56;4443620;32;20350;-70
2021/10/24 10:19:05;;;;;;;13.43;2.75;;;;;;;19.47;45.23;100558.00;4442263;32;20029;-70
2021/10/24 10:24:12;;;;;;;9.88;3.05;;;;;;;20.38;43.82;100562.66;3986517;32;15025313;-70
2021/10/24 10:26:43;;;;;;;10.35;2.72;;;;;;;20.38;43.82;100562.66;4442079;32;20047;-70
2021/10/24 10:29:12;;;;;;;11.00;2.60;;;;;;;20.30;43.37;100559.50;4441133;32;20056;-70
2021/10/24 10:31:39;;;;;;;8.75;2.65;;;;;;;20.56;43.21;100553.66;4440463;32;20074;-70
2021/10/24 10:34:08;;;;;;;13.77;2.92;;;;;;;20.47;42.91;100551.03;4440767;32;20455;-70
2021/10/24 10:36:56;;;;;;;9.45;3.12;;;;;;;20.51;42.70;100543.75;4439916;32;20070;-70
2021/10/24 10:53:10;;;;;;;9.32;2.97;;;;;;;20.62;43.17;100572.41;3986532;32;15024308;-70
2021/10/24 11:04:13;;;;;;;10.65;3.15;;;;;;;20.42;43.49;100566.06;3981445;32;15026707;-69
2021/10/24 11:09:37;;;;;;;11.77;2.95;;;;;;;20.12;45.12;100551.31;3913641;32;15754462;-70
2021/10/24 11:12:06;;;;;;;7.68;2.83;;;;;;;19.93;45.37;100552.97;4389768;32;20141;-70
2021/10/24 11:17:07;;;;;;;18.40;2.95;;;;;;;19.71;47.12;100543.22;3983816;32;15022450;-69
2021/10/24 11:24:52;;;;;;;13.98;3.40;;;;;;;19.53;47.95;100541.72;3983602;32;15022432;-69
2021/10/24 11:27:27;;;;;;;7.97;3.17;;;;;;;18.88;50.29;100540.50;4432823;32;20076;-69
2021/10/24 11:32:34;;;;;;;10.38;3.05;;;;;;;19.25;50.23;100535.72;3984941;32;15017227;-69
2021/10/24 11:40:17;;;;;;;8.38;3.10;;;;;;;19.81;50.19;100525.59;3971638;32;15023304;-68
2021/10/24 11:43:05;;;;;;;10.10;3.08;;;;;;;19.31;51.03;100530.09;4425559;32;20098;-68
2021/10/24 11:45:34;;;;;;;10.65;3.33;;;;;;;19.55;50.62;100534.22;4418212;32;20454;-68
2021/10/24 11:53:36;;;;;;;12.25;3.90;;;;;;;20.07;50.14;100517.75;3982218;32;15023711;-68
2021/10/24 11:56:06;;;;;;;10.48;3.33;;;;;;;20.07;50.14;100517.75;4437412;32;20586;-69
2021/10/24 12:01:21;;;;;;;13.18;3.58;;;;;;;20.54;48.77;100514.16;3986665;32;15022342;-69
2021/10/24 12:12:18;;;;;;;10.30;3.45;;;;;;;21.08;47.77;100492.78;3997705;31;15022888;-69
2021/10/24 12:14:46;;;;;;;12.43;3.45;;;;;;;21.08;47.77;100492.78;4446870;32;20085;-69
2021/10/24 12:17:15;;;;;;;10.38;3.30;;;;;;;20.40;48.38;100488.63;4446567;32;20084;-70
2021/10/24 12:19:40;;;;;;;11.35;3.15;;;;;;;20.37;48.67;100489.66;4445150;32;20100;-68
2021/10/24 12:22:08;;;;;;;10.85;3.05;;;;;;;20.46;48.27;100486.56;4447646;32;20068;-67
2021/10/24 12:24:50;;;;;;;14.77;3.30;;;;;;;20.60;47.88;100485.59;4443403;32;20079;-67
2021/10/24 12:27:21;;;;;;;8.07;3.28;;;;;;;21.04;47.24;100485.75;4446208;32;20063;-67
2021/10/24 12:30:08;;;;;;;12.10;3.80;;;;;;;21.01;47.75;100492.50;4452031;32;20082;-70
2021/10/24 12:32:36;;;;;;;8.85;2.87;;;;;;;20.95;47.23;100486.75;4445407;32;20072;-67
2021/10/24 12:37:41;;;;;;;9.82;3.60;;;;;;;21.33;46.42;100486.03;3983743;32;15025043;-70
2021/10/24 12:48:21;;;;;;;10.55;3.20;;;;;;;21.03;46.54;100473.53;4008543;31;15016692;-69
2021/10/24 12:50:47;;;;;;;12.43;4.00;;;;;;;21.35;45.90;100474.87;4463189;32;20084;-69